createdAt,value
2017-11-05T00:00:23.908Z,9.4
2017-11-05T00:01:42.610Z,9.3
2017-11-05T00:03:01.270Z,9.3
2017-11-05T00:04:19.937Z,9.2
2017-11-05T00:05:38.610Z,9.2
2017-11-05T00:06:57.258Z,9.2
2017-11-05T00:08:15.908Z,9.2
2017-11-05T00:09:34.598Z,9.1
2017-11-05T00:10:53.263Z,9.1
2017-11-05T00:12:11.928Z,9.1
2017-11-05T00:13:30.595Z,9
2017-11-05T00:14:49.245Z,9
2017-11-05T00:16:07.933Z,9
2017-11-05T00:17:26.584Z,9
2017-11-05T00:18:45.240Z,9.1
2017-11-05T00:20:03.923Z,9.2
2017-11-05T00:21:22.574Z,9.2
2017-11-05T00:22:41.244Z,9.2
2017-11-05T00:23:59.944Z,9.2
2017-11-05T00:25:18.646Z,9.1
2017-11-05T00:26:37.351Z,9.1
2017-11-05T00:27:56.000Z,9.1
2017-11-05T00:29:14.663Z,9.1
2017-11-05T00:30:33.307Z,9.1
2017-11-05T00:31:52.036Z,9.1
2017-11-05T00:33:10.696Z,9.1
2017-11-05T00:34:29.413Z,9
2017-11-05T00:35:48.085Z,9
2017-11-05T00:37:06.738Z,9
2017-11-05T00:38:25.419Z,9
2017-11-05T00:39:44.069Z,9.1
2017-11-05T00:41:02.771Z,9.1
2017-11-05T00:42:21.446Z,9
2017-11-05T00:43:40.160Z,8.9
2017-11-05T00:44:58.842Z,9
2017-11-05T00:46:17.488Z,9
2017-11-05T00:47:36.157Z,9
2017-11-05T00:48:54.834Z,9
2017-11-05T00:50:13.488Z,9
2017-11-05T00:51:32.152Z,9.1
2017-11-05T00:52:50.826Z,9.1
2017-11-05T00:54:09.477Z,9
2017-11-05T00:55:28.175Z,9
2017-11-05T00:56:46.828Z,9.1
2017-11-05T00:58:05.528Z,9.1
2017-11-05T00:59:24.205Z,9.1
2017-11-05T01:00:42.854Z,9.2
2017-11-05T01:02:01.504Z,9.1
2017-11-05T01:03:20.196Z,9.1
2017-11-05T01:04:38.888Z,9
2017-11-05T01:05:57.600Z,9.1
2017-11-05T01:07:16.262Z,9.1
2017-11-05T01:08:34.964Z,9.1
2017-11-05T01:09:53.693Z,9
2017-11-05T01:11:12.359Z,9.1
2017-11-05T01:12:31.008Z,9
2017-11-05T01:13:49.724Z,9
2017-11-05T01:15:08.423Z,9
2017-11-05T01:16:27.071Z,8.9
2017-11-05T01:17:45.775Z,8.9
2017-11-05T01:19:04.449Z,8.9
2017-11-05T01:20:23.095Z,8.9
2017-11-05T01:21:41.766Z,8.9
2017-11-05T01:23:00.469Z,8.9
2017-11-05T01:24:19.185Z,8.9
2017-11-05T01:25:37.831Z,8.7
2017-11-05T01:26:56.481Z,8.9
2017-11-05T01:28:15.159Z,8.8
2017-11-05T01:29:33.816Z,8.8
2017-11-05T01:30:52.519Z,8.8
2017-11-05T01:32:11.198Z,8.8
2017-11-05T01:33:29.881Z,8.7
2017-11-05T01:34:48.620Z,8.7
2017-11-05T01:36:07.270Z,8.6
2017-11-05T01:37:25.917Z,8.8
2017-11-05T01:38:44.565Z,8.8
2017-11-05T01:40:03.220Z,8.9
2017-11-05T01:41:21.872Z,8.9
2017-11-05T01:42:40.554Z,8.9
2017-11-05T01:43:59.205Z,8.9
2017-11-05T01:45:17.872Z,8.9
2017-11-05T01:46:36.516Z,8.9
2017-11-05T01:47:55.215Z,8.9
2017-11-05T01:49:13.870Z,8.9
2017-11-05T01:50:32.579Z,8.8
2017-11-05T01:51:51.232Z,8.8
2017-11-05T01:53:09.892Z,8.8
2017-11-05T01:54:28.554Z,8.8
2017-11-05T01:55:47.239Z,8.7
2017-11-05T01:57:05.891Z,8.8
2017-11-05T01:58:24.596Z,8.7
2017-11-05T01:59:43.248Z,8.6
2017-11-05T02:01:01.906Z,8.6
2017-11-05T02:02:20.553Z,8.6
2017-11-05T02:03:39.190Z,8.6
2017-11-05T02:04:57.843Z,8.7
2017-11-05T02:06:16.517Z,8.7
2017-11-05T02:07:35.189Z,8.6
2017-11-05T02:08:53.840Z,8.5
2017-11-05T02:10:12.524Z,8.5
2017-11-05T02:11:31.226Z,8.4
2017-11-05T02:12:49.916Z,8.4
2017-11-05T02:14:08.562Z,8.5
2017-11-05T02:15:27.209Z,8.5
2017-11-05T02:16:45.874Z,8.6
2017-11-05T02:18:04.521Z,8.6
2017-11-05T02:19:23.170Z,8.7
2017-11-05T02:20:41.879Z,8.7
2017-11-05T02:22:00.588Z,8.6
2017-11-05T02:23:19.271Z,8.7
2017-11-05T02:24:37.968Z,8.5
2017-11-05T02:25:56.625Z,8.5
2017-11-05T02:27:15.288Z,8.5
2017-11-05T02:28:33.936Z,8.5
2017-11-05T02:29:52.586Z,8.6
2017-11-05T02:31:11.240Z,8.6
2017-11-05T02:32:29.940Z,8.6
2017-11-05T02:33:48.640Z,8.5
2017-11-05T02:35:07.290Z,8.6
2017-11-05T02:36:25.970Z,8.6
2017-11-05T02:37:44.653Z,8.6
2017-11-05T02:39:03.345Z,8.6
2017-11-05T02:40:21.993Z,8.5
2017-11-05T02:41:40.650Z,8.6
2017-11-05T02:42:59.359Z,8.7
2017-11-05T02:44:18.012Z,8.7
2017-11-05T02:45:36.716Z,8.7
2017-11-05T02:46:55.365Z,8.7
2017-11-05T02:48:14.035Z,8.7
2017-11-05T02:49:32.678Z,8.6
2017-11-05T02:50:51.340Z,8.6
2017-11-05T02:52:10.007Z,8.5
2017-11-05T02:53:28.691Z,8.5
2017-11-05T02:54:47.382Z,8.6
2017-11-05T02:56:06.087Z,8.6
2017-11-05T02:57:24.749Z,8.8
2017-11-05T02:58:43.427Z,8.7
2017-11-05T03:00:02.072Z,8.7
2017-11-05T03:01:20.724Z,8.6
2017-11-05T03:02:39.382Z,8.6
2017-11-05T03:03:58.038Z,8.6
2017-11-05T03:05:16.742Z,8.6
2017-11-05T03:06:35.446Z,8.5
2017-11-05T03:07:54.113Z,8.5
2017-11-05T03:09:12.814Z,8.5
2017-11-05T03:10:31.475Z,8.4
2017-11-05T03:11:50.171Z,8.4
2017-11-05T03:13:08.852Z,8.4
2017-11-05T03:14:27.520Z,8.5
2017-11-05T03:15:46.165Z,8.6
2017-11-05T03:17:04.844Z,8.5
2017-11-05T03:18:23.528Z,8.5
2017-11-05T03:19:42.197Z,8.6
2017-11-05T03:21:00.846Z,8.7
2017-11-05T03:22:19.506Z,8.7
2017-11-05T03:23:38.182Z,8.7
2017-11-05T03:24:56.918Z,8.7
2017-11-05T03:26:15.582Z,8.7
2017-11-05T03:27:34.281Z,8.7
2017-11-05T03:28:52.934Z,8.7
2017-11-05T03:30:11.651Z,8.5
2017-11-05T03:31:30.354Z,8.6
2017-11-05T03:32:49.038Z,8.6
2017-11-05T03:34:07.681Z,8.6
2017-11-05T03:35:26.351Z,8.7
2017-11-05T03:36:45.016Z,8.6
2017-11-05T03:38:03.710Z,8.5
2017-11-05T03:39:22.351Z,8.6
2017-11-05T03:40:41.068Z,8.5
2017-11-05T03:41:59.754Z,8.6
2017-11-05T03:43:18.425Z,8.7
2017-11-05T03:44:37.068Z,8.8
2017-11-05T03:45:55.750Z,8.9
2017-11-05T03:47:14.416Z,9.1
2017-11-05T03:48:33.083Z,9.3
2017-11-05T03:49:51.768Z,9.3
2017-11-05T03:51:10.459Z,9.4
2017-11-05T03:52:29.168Z,9.5
2017-11-05T03:53:47.818Z,9.5
2017-11-05T03:55:06.465Z,9.6
2017-11-05T03:56:25.167Z,9.6
2017-11-05T03:57:43.818Z,9.6
2017-11-05T03:59:02.468Z,9.7
2017-11-05T04:00:21.117Z,9.7
2017-11-05T04:01:39.772Z,9.7
2017-11-05T04:02:58.460Z,9.8
2017-11-05T04:04:17.111Z,9.8
2017-11-05T04:05:35.760Z,9.8
2017-11-05T04:06:54.444Z,9.8
2017-11-05T04:08:13.085Z,9.8
2017-11-05T04:09:31.757Z,9.9
2017-11-05T04:10:50.401Z,9.9
2017-11-05T04:12:09.071Z,9.9
2017-11-05T04:13:27.715Z,9.8
2017-11-05T04:14:46.358Z,9.8
2017-11-05T04:16:05.060Z,9.8
2017-11-05T04:17:23.730Z,9.9
2017-11-05T04:18:42.383Z,9.8
2017-11-05T04:20:01.071Z,9.8
2017-11-05T04:21:19.743Z,9.8
2017-11-05T04:22:38.409Z,9.7
2017-11-05T04:23:57.060Z,9.7
2017-11-05T04:25:15.714Z,9.7
2017-11-05T04:26:34.386Z,9.7
2017-11-05T04:27:53.077Z,9.7
2017-11-05T04:29:11.780Z,9.7
2017-11-05T04:30:30.474Z,9.7
2017-11-05T04:31:49.124Z,9.6
2017-11-05T04:33:07.867Z,9.6
2017-11-05T04:34:26.518Z,9.7
2017-11-05T04:35:45.212Z,9.7
2017-11-05T04:37:03.861Z,9.6
2017-11-05T04:38:22.536Z,9.6
2017-11-05T04:39:41.234Z,9.6
2017-11-05T04:40:59.886Z,9.6
2017-11-05T04:42:18.556Z,9.6
2017-11-05T04:43:37.267Z,9.5
2017-11-05T04:44:55.932Z,9.5
2017-11-05T04:46:14.585Z,9.5
2017-11-05T04:47:33.237Z,9.4
2017-11-05T04:48:51.915Z,9.5
2017-11-05T04:50:10.563Z,9.5
2017-11-05T04:51:29.229Z,9.5
2017-11-05T04:52:47.922Z,9.5
2017-11-05T04:54:06.575Z,9.5
2017-11-05T04:55:25.266Z,9.4
2017-11-05T04:56:43.910Z,9.3
2017-11-05T04:58:02.561Z,9.3
2017-11-05T04:59:21.236Z,9.3
2017-11-05T05:00:39.901Z,9.4
2017-11-05T05:01:58.545Z,9.4
2017-11-05T05:03:17.229Z,9.5
2017-11-05T05:04:35.905Z,9.5
2017-11-05T05:05:54.588Z,9.5
2017-11-05T05:07:13.236Z,9.5
2017-11-05T05:08:31.881Z,9.5
2017-11-05T05:09:50.556Z,9.5
2017-11-05T05:11:09.283Z,9.5
2017-11-05T05:12:27.929Z,9.6
2017-11-05T05:13:46.599Z,9.7
2017-11-05T05:15:05.324Z,9.7
2017-11-05T05:16:23.993Z,9.7
2017-11-05T05:17:42.710Z,9.7
2017-11-05T05:19:01.411Z,9.7
2017-11-05T05:20:20.084Z,9.7
2017-11-05T05:21:38.739Z,9.7
2017-11-05T05:22:57.387Z,9.7
2017-11-05T05:24:16.086Z,9.7
2017-11-05T05:25:34.743Z,9.8
2017-11-05T05:26:53.399Z,9.8
2017-11-05T05:28:12.055Z,9.7
2017-11-05T05:29:30.758Z,9.7
2017-11-05T05:30:49.445Z,9.7
2017-11-05T05:32:08.088Z,9.7
2017-11-05T05:33:26.740Z,9.7
2017-11-05T05:34:45.390Z,9.8
2017-11-05T05:36:04.080Z,9.8
2017-11-05T05:37:22.733Z,9.8
2017-11-05T05:38:41.382Z,9.8
2017-11-05T05:40:00.040Z,9.8
2017-11-05T05:41:18.722Z,9.8
2017-11-05T05:42:37.422Z,9.8
2017-11-05T05:43:56.105Z,9.9
2017-11-05T05:45:14.759Z,9.8
2017-11-05T05:46:33.465Z,9.9
2017-11-05T05:47:52.119Z,9.8
2017-11-05T05:49:10.773Z,9.8
2017-11-05T05:50:29.434Z,9.7
2017-11-05T05:51:48.136Z,9.7
2017-11-05T05:53:06.812Z,9.7
2017-11-05T05:54:25.511Z,9.6
2017-11-05T05:55:44.221Z,9.6
2017-11-05T05:57:02.875Z,9.6
2017-11-05T05:58:21.526Z,9.6
2017-11-05T05:59:40.173Z,9.5
2017-11-05T06:00:58.886Z,9.5
2017-11-05T06:02:17.584Z,9.5
2017-11-05T06:03:36.281Z,9.5
2017-11-05T06:04:54.944Z,9.6
2017-11-05T06:06:13.594Z,9.6
2017-11-05T06:07:32.246Z,9.6
2017-11-05T06:08:50.894Z,9.5
2017-11-05T06:10:09.538Z,9.5
2017-11-05T06:11:28.188Z,9.6
2017-11-05T06:12:46.856Z,9.6
2017-11-05T06:14:05.514Z,9.6
2017-11-05T06:15:24.179Z,9.6
2017-11-05T06:16:42.832Z,9.6
2017-11-05T06:18:01.516Z,9.6
2017-11-05T06:19:20.171Z,9.6
2017-11-05T06:20:38.833Z,9.6
2017-11-05T06:21:57.518Z,9.6
2017-11-05T06:23:16.179Z,9.7
2017-11-05T06:24:34.833Z,9.7
2017-11-05T06:25:53.490Z,9.7
2017-11-05T06:27:12.133Z,9.7
2017-11-05T06:28:30.848Z,9.7
2017-11-05T06:29:49.495Z,9.7
2017-11-05T06:31:08.137Z,9.7
2017-11-05T06:32:26.795Z,9.7
2017-11-05T06:33:45.512Z,9.7
2017-11-05T06:35:04.161Z,9.7
2017-11-05T06:36:22.802Z,9.7
2017-11-05T06:37:41.443Z,9.8
2017-11-05T06:39:00.114Z,9.8
2017-11-05T06:40:18.838Z,9.8
2017-11-05T06:41:37.536Z,9.8
2017-11-05T06:42:56.221Z,9.8
2017-11-05T06:44:14.885Z,9.8
2017-11-05T06:45:33.545Z,9.8
2017-11-05T06:46:52.249Z,9.8
2017-11-05T06:48:10.897Z,9.8
2017-11-05T06:49:29.580Z,9.8
2017-11-05T06:50:48.232Z,9.8
2017-11-05T06:52:06.885Z,9.9
2017-11-05T06:53:25.544Z,9.9
2017-11-05T06:54:44.203Z,9.9
2017-11-05T06:56:02.848Z,9.9
2017-11-05T06:57:21.498Z,9.9
2017-11-05T06:58:40.184Z,9.9
2017-11-05T06:59:58.928Z,9.9
2017-11-05T07:01:17.582Z,9.9
2017-11-05T07:02:36.229Z,9.9
2017-11-05T07:03:54.878Z,9.9
2017-11-05T07:05:13.555Z,9.9
2017-11-05T07:06:32.268Z,10
2017-11-05T07:07:50.929Z,10
2017-11-05T07:09:09.598Z,10
2017-11-05T07:10:28.275Z,10.1
2017-11-05T07:11:46.963Z,10.1
2017-11-05T07:13:05.632Z,10.2
2017-11-05T07:14:24.360Z,10.2
2017-11-05T07:15:43.044Z,10.3
2017-11-05T07:17:01.710Z,10.4
2017-11-05T07:18:20.376Z,10.5
2017-11-05T07:19:39.038Z,10.5
2017-11-05T07:20:57.725Z,10.5
2017-11-05T07:22:16.434Z,10.5
2017-11-05T07:23:35.142Z,10.6
2017-11-05T07:24:53.833Z,10.6
2017-11-05T07:26:12.515Z,10.6
2017-11-05T07:27:31.183Z,10.5
2017-11-05T07:28:49.844Z,10.5
2017-11-05T07:30:08.553Z,10.5
2017-11-05T07:31:27.242Z,10.5
2017-11-05T07:32:45.922Z,10.6
2017-11-05T07:34:04.595Z,10.7
2017-11-05T07:35:23.315Z,10.7
2017-11-05T07:36:42.081Z,10.8
2017-11-05T07:38:00.739Z,10.9
2017-11-05T07:39:19.408Z,11
2017-11-05T07:40:38.091Z,11.2
2017-11-05T07:41:56.765Z,11.3
2017-11-05T07:43:15.439Z,11.3
2017-11-05T07:44:34.115Z,11.3
2017-11-05T07:45:52.778Z,11.5
2017-11-05T07:47:11.455Z,11.7
2017-11-05T07:48:30.134Z,11.7
2017-11-05T07:49:48.811Z,11.7
2017-11-05T07:51:07.492Z,11.6
2017-11-05T07:52:26.181Z,11.6
2017-11-05T07:53:44.843Z,11.5
2017-11-05T07:55:03.567Z,11.5
2017-11-05T07:56:22.286Z,11.5
2017-11-05T07:57:41.011Z,11.6
2017-11-05T07:58:59.673Z,11.6
2017-11-05T08:00:18.336Z,11.6
2017-11-05T08:01:37.040Z,11.6
2017-11-05T08:02:55.729Z,11.6
2017-11-05T08:04:14.392Z,11.6
2017-11-05T08:05:33.104Z,11.5
2017-11-05T08:06:51.770Z,11.4
2017-11-05T08:08:10.474Z,11.5
2017-11-05T08:09:29.139Z,11.6
2017-11-05T08:10:47.810Z,11.7
2017-11-05T08:12:06.482Z,11.8
2017-11-05T08:13:25.150Z,11.8
2017-11-05T08:14:43.857Z,11.8
2017-11-05T08:16:02.577Z,11.7
2017-11-05T08:17:21.243Z,11.8
2017-11-05T08:18:39.923Z,11.7
2017-11-05T08:19:58.616Z,11.6
2017-11-05T08:21:17.281Z,11.5
2017-11-05T08:22:35.947Z,11.5
2017-11-05T08:23:54.693Z,11.6
2017-11-05T08:25:13.390Z,11.6
2017-11-05T08:26:32.050Z,11.6
2017-11-05T08:27:50.718Z,11.7
2017-11-05T08:29:09.395Z,11.7
2017-11-05T08:30:28.065Z,11.7
2017-11-05T08:31:46.778Z,11.7
2017-11-05T08:33:05.444Z,11.7
2017-11-05T08:34:24.118Z,11.8
2017-11-05T08:35:42.786Z,11.7
2017-11-05T08:37:01.452Z,11.9
2017-11-05T08:38:20.133Z,11.9
2017-11-05T08:39:38.859Z,11.9
2017-11-05T08:40:57.529Z,12
2017-11-05T08:42:16.233Z,12
2017-11-05T08:43:34.897Z,12
2017-11-05T08:44:53.871Z,12
2017-11-05T08:46:12.548Z,11.9
2017-11-05T08:47:31.272Z,11.9
2017-11-05T08:48:49.937Z,12
2017-11-05T08:50:08.640Z,12.1
2017-11-05T08:51:27.329Z,12.1
2017-11-05T08:52:45.999Z,12.1
2017-11-05T08:54:04.684Z,12.2
2017-11-05T08:55:23.460Z,12.4
2017-11-05T08:56:42.128Z,12.6
2017-11-05T08:58:00.830Z,12.6
2017-11-05T08:59:19.490Z,12.5
2017-11-05T09:00:38.169Z,12.6
2017-11-05T09:01:56.870Z,12.6
2017-11-05T09:03:15.536Z,12.6
2017-11-05T09:04:34.206Z,12.5
2017-11-05T09:05:52.939Z,12.5
2017-11-05T09:07:11.634Z,12.6
2017-11-05T09:08:30.308Z,12.7
2017-11-05T09:09:48.965Z,12.7
2017-11-05T09:11:07.700Z,12.6
2017-11-05T09:12:26.371Z,12.7
2017-11-05T09:13:45.040Z,12.9
2017-11-05T09:15:03.745Z,12.9
2017-11-05T09:16:22.439Z,13
2017-11-05T09:17:41.108Z,13.2
2017-11-05T09:18:59.775Z,13.2
2017-11-05T09:20:18.451Z,13.1
2017-11-05T09:21:37.139Z,13
2017-11-05T09:22:55.848Z,13
2017-11-05T09:24:14.567Z,13.2
2017-11-05T09:25:33.262Z,13.4
2017-11-05T09:26:51.953Z,13.5
2017-11-05T09:28:10.624Z,13.7
2017-11-05T09:29:29.340Z,13.6
2017-11-05T09:30:48.015Z,13.8
2017-11-05T09:32:06.752Z,13.6
2017-11-05T09:33:25.413Z,13.3
2017-11-05T09:34:44.089Z,13.3
2017-11-05T09:36:02.750Z,13.4
2017-11-05T09:37:21.423Z,13.4
2017-11-05T09:38:40.143Z,13.2
2017-11-05T09:39:58.819Z,13.2
2017-11-05T09:41:17.489Z,13.1
2017-11-05T09:42:36.235Z,13
2017-11-05T09:43:54.908Z,12.9
2017-11-05T09:45:13.571Z,12.5
2017-11-05T09:46:32.281Z,12.5
2017-11-05T09:47:50.958Z,12.4
2017-11-05T09:49:09.620Z,12.4
2017-11-05T09:50:28.326Z,12.4
2017-11-05T09:51:47.003Z,12.1
2017-11-05T09:53:05.690Z,12.1
2017-11-05T09:54:24.358Z,12.1
2017-11-05T09:55:43.100Z,12
2017-11-05T09:57:01.764Z,12.1
2017-11-05T09:58:20.462Z,12.2
2017-11-05T09:59:39.138Z,12.3
2017-11-05T10:00:57.869Z,12.3
2017-11-05T10:02:16.594Z,12.3
2017-11-05T10:03:35.274Z,12.3
2017-11-05T10:04:53.943Z,12.4
2017-11-05T10:06:12.610Z,12.4
2017-11-05T10:07:31.275Z,12.2
2017-11-05T10:08:49.943Z,12.1
2017-11-05T10:10:08.605Z,12.1
2017-11-05T10:11:27.292Z,12
2017-11-05T10:12:45.984Z,12
2017-11-05T10:14:04.679Z,12
2017-11-05T10:15:23.387Z,12
2017-11-05T10:16:42.062Z,12.1
2017-11-05T10:18:00.722Z,12.1
2017-11-05T10:19:19.402Z,12.2
2017-11-05T10:20:38.091Z,12.2
2017-11-05T10:21:56.762Z,12.1
2017-11-05T10:23:15.480Z,12.1
2017-11-05T10:24:34.173Z,11.9
2017-11-05T10:25:52.865Z,11.7
2017-11-05T10:27:11.562Z,11.8
2017-11-05T10:28:30.247Z,11.8
2017-11-05T10:29:48.961Z,11.8
2017-11-05T10:31:07.648Z,11.9
2017-11-05T10:32:26.380Z,11.8
2017-11-05T10:33:45.056Z,11.9
2017-11-05T10:35:03.755Z,12
2017-11-05T10:36:22.422Z,12.5
2017-11-05T10:37:41.089Z,12.9
2017-11-05T10:38:59.808Z,12.8
2017-11-05T10:40:18.523Z,12.5
2017-11-05T10:41:37.195Z,12.7
2017-11-05T10:42:55.901Z,12.7
2017-11-05T10:44:14.573Z,13
2017-11-05T10:45:33.280Z,13.3
2017-11-05T10:46:51.985Z,13.2
2017-11-05T10:48:10.656Z,13.2
2017-11-05T10:49:29.377Z,13.2
2017-11-05T10:50:48.078Z,13.2
2017-11-05T10:52:06.756Z,13.1
2017-11-05T10:53:25.433Z,13
2017-11-05T10:54:44.095Z,12.8
2017-11-05T10:56:02.807Z,12.7
2017-11-05T10:57:21.528Z,12.6
2017-11-05T10:58:40.242Z,12.5
2017-11-05T10:59:58.915Z,12.6
2017-11-05T11:01:17.613Z,12.6
2017-11-05T11:02:36.290Z,12.6
2017-11-05T11:03:54.955Z,12.6
2017-11-05T11:05:13.673Z,12.5
2017-11-05T11:06:32.396Z,12.3
2017-11-05T11:07:51.098Z,12.3
2017-11-05T11:09:09.763Z,12.3
2017-11-05T11:10:28.437Z,12.3
2017-11-05T11:11:47.159Z,12.1
2017-11-05T11:13:05.872Z,12
2017-11-05T11:14:24.541Z,12
2017-11-05T11:15:43.207Z,12
2017-11-05T11:17:01.902Z,11.9
2017-11-05T11:18:20.585Z,12
2017-11-05T11:19:39.306Z,11.9
2017-11-05T11:20:57.974Z,11.9
2017-11-05T11:22:16.663Z,11.8
2017-11-05T11:23:35.323Z,11.9
2017-11-05T11:24:54.034Z,11.9
2017-11-05T11:26:12.745Z,11.9
2017-11-05T11:27:31.411Z,11.8
2017-11-05T11:28:50.078Z,11.9
2017-11-05T11:30:08.745Z,11.9
2017-11-05T11:31:27.458Z,12
2017-11-05T11:32:46.170Z,12.1
2017-11-05T11:34:04.845Z,12
2017-11-05T11:35:23.569Z,11.9
2017-11-05T11:36:42.236Z,12.1
2017-11-05T11:38:00.921Z,12.1
2017-11-05T11:39:19.590Z,12.2
2017-11-05T11:40:38.258Z,12.3
2017-11-05T11:41:56.929Z,12.5
2017-11-05T11:43:15.627Z,12.5
2017-11-05T11:44:34.345Z,12.6
2017-11-05T11:45:53.018Z,12.5
2017-11-05T11:47:11.684Z,12.4
2017-11-05T11:48:30.403Z,12.5
2017-11-05T11:49:49.122Z,12.4
2017-11-05T11:51:07.805Z,12.2
2017-11-05T11:52:26.474Z,12.3
2017-11-05T11:53:45.159Z,12.5
2017-11-05T11:55:03.876Z,12.5
2017-11-05T11:56:22.568Z,12.6
2017-11-05T11:57:41.236Z,12.6
2017-11-05T11:58:59.957Z,12.6
2017-11-05T12:00:18.660Z,12.6
2017-11-05T12:01:37.325Z,12.6
2017-11-05T12:02:56.031Z,12.6
2017-11-05T12:04:14.776Z,12.6
2017-11-05T12:05:33.439Z,12.3
2017-11-05T12:06:52.158Z,12.3
2017-11-05T12:08:10.826Z,12.1
2017-11-05T12:09:29.512Z,12
2017-11-05T12:10:48.183Z,12
2017-11-05T12:12:06.906Z,12.2
2017-11-05T12:13:25.572Z,12.1
2017-11-05T12:14:44.247Z,12
2017-11-05T12:16:02.947Z,11.9
2017-11-05T12:17:21.617Z,11.9
2017-11-05T12:18:40.333Z,11.7
2017-11-05T12:19:59.025Z,11.5
2017-11-05T12:21:17.748Z,11.5
2017-11-05T12:22:36.413Z,11.4
2017-11-05T12:23:55.091Z,11.4
2017-11-05T12:25:13.816Z,11.4
2017-11-05T12:26:32.500Z,11.5
2017-11-05T12:27:51.194Z,11.3
2017-11-05T12:29:09.861Z,11.3
2017-11-05T12:30:28.593Z,11.4
2017-11-05T12:31:47.274Z,11.3
2017-11-05T12:33:05.951Z,11.2
2017-11-05T12:34:24.649Z,11.3
2017-11-05T12:35:43.345Z,11.1
2017-11-05T12:37:02.019Z,11
2017-11-05T12:38:20.681Z,10.9
2017-11-05T12:39:39.375Z,10.8
2017-11-05T12:40:58.103Z,10.8
2017-11-05T12:42:16.777Z,10.9
2017-11-05T12:43:35.454Z,10.8
2017-11-05T12:44:54.174Z,10.8
2017-11-05T12:46:12.853Z,10.7
2017-11-05T12:47:31.528Z,10.7
2017-11-05T12:48:50.195Z,10.8
2017-11-05T12:50:08.866Z,10.7
2017-11-05T12:51:27.599Z,10.6
2017-11-05T12:52:46.259Z,10.5
2017-11-05T12:54:05.001Z,10.4
2017-11-05T12:55:23.712Z,10.3
2017-11-05T12:56:42.473Z,10.1
2017-11-05T12:58:01.151Z,10.1
2017-11-05T12:59:19.815Z,10.1
2017-11-05T13:00:38.497Z,10
2017-11-05T13:01:57.234Z,10
2017-11-05T13:03:15.897Z,10
2017-11-05T13:04:34.538Z,9.9
2017-11-05T13:05:53.246Z,9.9
2017-11-05T13:07:11.921Z,9.9
2017-11-05T13:08:30.617Z,9.9
2017-11-05T13:09:49.281Z,9.9
2017-11-05T13:11:07.943Z,9.8
2017-11-05T13:12:26.652Z,9.8
2017-11-05T13:13:45.305Z,9.8
2017-11-05T13:15:03.994Z,9.9
2017-11-05T13:16:22.731Z,10
2017-11-05T13:17:41.445Z,10
2017-11-05T13:19:00.164Z,10
2017-11-05T13:20:18.842Z,10
2017-11-05T13:21:37.502Z,10
2017-11-05T13:22:56.250Z,9.9
2017-11-05T13:24:14.894Z,9.7
2017-11-05T13:25:33.553Z,9.7
2017-11-05T13:26:52.229Z,9.6
2017-11-05T13:28:10.918Z,9.6
2017-11-05T13:29:29.567Z,9.5
2017-11-05T13:30:48.233Z,9.3
2017-11-05T13:32:06.899Z,9.1
2017-11-05T13:33:25.635Z,8.7
2017-11-05T13:34:44.349Z,8.3
2017-11-05T13:36:02.996Z,8.1
2017-11-05T13:37:21.649Z,8
2017-11-05T13:38:40.339Z,7.7
2017-11-05T13:39:58.988Z,7.6
2017-11-05T13:41:17.670Z,7.5
2017-11-05T13:42:36.322Z,7.4
2017-11-05T13:43:54.980Z,7.3
2017-11-05T13:45:13.631Z,7.1
2017-11-05T13:46:32.309Z,7.2
2017-11-05T13:47:50.978Z,7.1
2017-11-05T13:49:09.675Z,7.1
2017-11-05T13:50:28.324Z,7.1
2017-11-05T13:51:47.000Z,7.1
2017-11-05T13:53:05.646Z,7.1
2017-11-05T13:54:24.326Z,7
2017-11-05T13:55:43.006Z,7.1
2017-11-05T13:57:01.678Z,7.1
2017-11-05T13:58:20.376Z,7.1
2017-11-05T13:59:39.042Z,7.2
2017-11-05T14:00:57.688Z,7.1
2017-11-05T14:02:16.331Z,7.1
2017-11-05T14:03:34.982Z,7.1
2017-11-05T14:04:53.691Z,7.1
2017-11-05T14:06:12.346Z,7
2017-11-05T14:07:30.994Z,7.1
2017-11-05T14:08:49.655Z,7.1
2017-11-05T14:10:08.332Z,7.1
2017-11-05T14:11:27.040Z,7.1
2017-11-05T14:12:45.699Z,7.1
2017-11-05T14:14:04.393Z,7
2017-11-05T14:15:23.068Z,7
2017-11-05T14:16:41.713Z,6.9
2017-11-05T14:18:00.447Z,6.9
2017-11-05T14:19:19.123Z,6.9
2017-11-05T14:20:37.822Z,6.8
2017-11-05T14:21:56.472Z,6.8
2017-11-05T14:23:15.121Z,6.9
2017-11-05T14:24:33.779Z,6.8
2017-11-05T14:25:52.450Z,6.9
2017-11-05T14:27:11.106Z,6.9
2017-11-05T14:28:29.758Z,6.8
2017-11-05T14:29:48.404Z,6.8
2017-11-05T14:31:07.087Z,6.7
2017-11-05T14:32:25.780Z,6.7
2017-11-05T14:33:44.427Z,6.7
2017-11-05T14:35:03.123Z,6.7
2017-11-05T14:36:21.791Z,6.7
2017-11-05T14:37:40.442Z,6.7
2017-11-05T14:38:59.097Z,6.7
2017-11-05T14:40:17.757Z,6.7
2017-11-05T14:41:36.492Z,6.7
2017-11-05T14:42:55.149Z,6.7
2017-11-05T14:44:13.800Z,6.7
2017-11-05T14:45:32.458Z,6.6
2017-11-05T14:46:51.129Z,6.5
2017-11-05T14:48:09.798Z,6.5
2017-11-05T14:49:28.457Z,6.5
2017-11-05T14:50:47.105Z,6.5
2017-11-05T14:52:05.767Z,6.5
2017-11-05T14:53:24.439Z,6.5
2017-11-05T14:54:43.125Z,6.5
2017-11-05T14:56:01.874Z,6.5
2017-11-05T14:57:20.607Z,6.5
2017-11-05T14:58:39.274Z,6.4
2017-11-05T14:59:57.927Z,6.4
2017-11-05T15:01:16.571Z,6.4
2017-11-05T15:02:35.268Z,6.4
2017-11-05T15:03:53.916Z,6.5
2017-11-05T15:05:12.568Z,6.5
2017-11-05T15:06:31.228Z,6.4
2017-11-05T15:07:49.883Z,6.3
2017-11-05T15:09:08.539Z,6.3
2017-11-05T15:10:27.240Z,6.3
2017-11-05T15:11:45.902Z,6.3
2017-11-05T15:13:04.591Z,6.3
2017-11-05T15:14:23.253Z,6.3
2017-11-05T15:15:41.927Z,6.3
2017-11-05T15:17:00.612Z,6.3
2017-11-05T15:18:19.283Z,6.3
2017-11-05T15:19:37.972Z,6.3
2017-11-05T15:20:56.663Z,6.3
2017-11-05T15:22:15.310Z,6.3
2017-11-05T15:23:33.977Z,6.3
2017-11-05T15:24:52.632Z,6.3
2017-11-05T15:26:11.302Z,6.3
2017-11-05T15:27:29.953Z,6.3
2017-11-05T15:28:48.640Z,6.3
2017-11-05T15:30:07.304Z,6.3
2017-11-05T15:31:25.947Z,6.3
2017-11-05T15:32:44.596Z,6.3
2017-11-05T15:34:03.248Z,6.3
2017-11-05T15:35:21.949Z,6.3
2017-11-05T15:36:40.638Z,6.3
2017-11-05T15:37:59.309Z,6.3
2017-11-05T15:39:17.994Z,6.2
2017-11-05T15:40:36.674Z,6.2
2017-11-05T15:41:55.340Z,6.2
2017-11-05T15:43:14.044Z,6.2
2017-11-05T15:44:32.726Z,6.3
2017-11-05T15:45:51.374Z,6.2
2017-11-05T15:47:10.061Z,6.3
2017-11-05T15:48:28.727Z,6.3
2017-11-05T15:49:47.391Z,6.3
2017-11-05T15:51:06.062Z,6.3
2017-11-05T15:52:24.721Z,6.3
2017-11-05T15:53:43.371Z,6.3
2017-11-05T15:55:02.029Z,6.3
2017-11-05T15:56:20.707Z,6.3
2017-11-05T15:57:39.406Z,6.3
2017-11-05T15:58:58.052Z,6.2
2017-11-05T16:00:16.803Z,6.3
2017-11-05T16:01:35.497Z,6.3
2017-11-05T16:02:54.156Z,6.3
2017-11-05T16:04:12.860Z,6.3
2017-11-05T16:05:31.592Z,6.3
2017-11-05T16:06:50.232Z,6.3
2017-11-05T16:08:08.907Z,6.2
2017-11-05T16:09:27.564Z,6.1
2017-11-05T16:10:46.263Z,6.1
2017-11-05T16:12:04.957Z,6.1
2017-11-05T16:13:23.618Z,6
2017-11-05T16:14:42.284Z,6
2017-11-05T16:16:00.969Z,6
2017-11-05T16:17:19.619Z,6
2017-11-05T16:18:38.273Z,6
2017-11-05T16:19:56.929Z,6
2017-11-05T16:21:15.616Z,5.9
2017-11-05T16:22:34.269Z,5.9
2017-11-05T16:23:52.976Z,5.8
2017-11-05T16:25:11.645Z,5.9
2017-11-05T16:26:30.318Z,5.8
2017-11-05T16:27:48.997Z,5.7
2017-11-05T16:29:07.646Z,5.7
2017-11-05T16:30:26.325Z,5.6
2017-11-05T16:31:45.023Z,5.6
2017-11-05T16:33:03.690Z,5.6
2017-11-05T16:34:22.340Z,5.6
2017-11-05T16:35:40.997Z,5.6
2017-11-05T16:36:59.649Z,5.5
2017-11-05T16:38:18.316Z,5.5
2017-11-05T16:39:37.026Z,5.4
2017-11-05T16:40:55.703Z,5.4
2017-11-05T16:42:14.370Z,5.3
2017-11-05T16:43:33.013Z,5.2
2017-11-05T16:44:51.663Z,5.2
2017-11-05T16:46:10.321Z,5.1
2017-11-05T16:47:28.995Z,5.1
2017-11-05T16:48:47.690Z,5.1
2017-11-05T16:50:06.367Z,5.1
2017-11-05T16:51:25.034Z,5.1
2017-11-05T16:52:43.728Z,5.1
2017-11-05T16:54:02.405Z,5.1
2017-11-05T16:55:21.071Z,5.1
2017-11-05T16:56:39.790Z,5.2
2017-11-05T16:57:58.464Z,5.1
2017-11-05T16:59:17.112Z,5.1
2017-11-05T17:00:35.807Z,5
2017-11-05T17:01:54.493Z,4.9
2017-11-05T17:03:13.173Z,4.9
2017-11-05T17:04:31.828Z,4.9
2017-11-05T17:05:50.479Z,4.9
2017-11-05T17:07:09.132Z,4.9
2017-11-05T17:08:27.781Z,5
2017-11-05T17:09:46.452Z,4.9
2017-11-05T17:11:05.099Z,4.9
2017-11-05T17:12:23.764Z,4.8
2017-11-05T17:13:42.455Z,4.9
2017-11-05T17:15:01.134Z,4.9
2017-11-05T17:16:19.855Z,4.8
2017-11-05T17:17:38.500Z,4.9
2017-11-05T17:18:57.179Z,5
2017-11-05T17:20:15.833Z,4.9
2017-11-05T17:21:34.480Z,4.9
2017-11-05T17:22:53.125Z,4.8
2017-11-05T17:24:11.821Z,4.9
2017-11-05T17:25:30.505Z,4.9
2017-11-05T17:26:49.169Z,4.9
2017-11-05T17:28:07.871Z,4.8
2017-11-05T17:29:26.570Z,4.9
2017-11-05T17:30:45.269Z,4.9
2017-11-05T17:32:03.923Z,4.9
2017-11-05T17:33:22.573Z,4.8
2017-11-05T17:34:41.284Z,4.8
2017-11-05T17:35:59.962Z,4.8
2017-11-05T17:37:18.614Z,4.8
2017-11-05T17:38:37.267Z,4.8
2017-11-05T17:39:56.002Z,4.8
2017-11-05T17:41:14.646Z,4.7
2017-11-05T17:42:33.309Z,4.8
2017-11-05T17:43:51.953Z,4.8
2017-11-05T17:45:10.659Z,4.8
2017-11-05T17:46:29.360Z,4.7
2017-11-05T17:47:48.062Z,4.8
2017-11-05T17:49:06.760Z,4.8
2017-11-05T17:50:25.507Z,4.7
2017-11-05T17:51:44.182Z,4.8
2017-11-05T17:53:02.828Z,4.7
2017-11-05T17:54:21.487Z,4.7
2017-11-05T17:55:40.162Z,4.7
2017-11-05T17:56:58.863Z,4.8